createdAt,value
2023-04-25T00:00:45.664Z,0.40
2023-04-25T00:03:32.521Z,0.50
2023-04-25T00:06:21.087Z,0.50
2023-04-25T00:10:04.817Z,0.50
2023-04-25T00:15:45.204Z,0.60
2023-04-25T00:18:33.561Z,0.40
2023-04-25T00:30:43.252Z,0.70
2023-04-25T00:43:46.764Z,1.00
2023-04-25T00:49:31.902Z,1.10
2023-04-25T00:52:17.578Z,1.40
2023-04-25T00:55:02.827Z,1.30
2023-04-25T00:57:50.301Z,1.20
2023-04-25T01:06:44.609Z,1.50
2023-04-25T01:09:32.342Z,1.20
2023-04-25T01:21:57.801Z,1.40
2023-04-25T01:24:43.591Z,1.30
2023-04-25T01:27:29.689Z,1.10
2023-04-25T01:39:41.266Z,2.00
2023-04-25T01:42:28.135Z,1.00
2023-04-25T01:45:13.565Z,1.20
2023-04-25T01:57:49.363Z,1.20
2023-04-25T02:00:34.603Z,1.30
2023-04-25T02:03:20.364Z,1.20
2023-04-25T02:09:14.012Z,1.40
2023-04-25T02:11:59.430Z,1.30
2023-04-25T02:17:56.696Z,1.50
2023-04-25T02:30:10.223Z,1.60
2023-04-25T02:32:55.353Z,1.60
2023-04-25T02:38:56.654Z,1.60
2023-04-25T02:41:41.627Z,2.30
2023-04-25T02:47:37.918Z,1.40
2023-04-25T02:53:24.684Z,1.70
2023-04-25T02:56:10.195Z,1.70
2023-04-25T03:05:12.255Z,1.80
2023-04-25T03:08:09.112Z,2.20
2023-04-25T03:13:57.275Z,2.00
2023-04-25T03:16:43.086Z,1.60
2023-04-25T03:45:58.586Z,1.90
2023-04-25T03:48:45.144Z,2.40
2023-04-25T03:51:31.358Z,2.10
2023-04-25T03:54:16.812Z,1.60
2023-04-25T03:57:01.933Z,1.60
2023-04-25T04:02:30.026Z,2.00
2023-04-25T04:05:17.341Z,2.20
2023-04-25T04:08:03.391Z,2.50
2023-04-25T04:17:01.473Z,2.70
2023-04-25T04:20:41.618Z,2.60
2023-04-25T04:26:47.373Z,2.00
2023-04-25T04:29:34.119Z,2.10
2023-04-25T04:32:19.285Z,2.40
2023-04-25T04:35:06.897Z,2.10
2023-04-25T04:37:52.060Z,2.30
2023-04-25T04:40:37.983Z,2.90
2023-04-25T04:43:23.366Z,2.70
2023-04-25T04:49:14.538Z,2.70
2023-04-25T05:07:53.324Z,2.50
2023-04-25T05:16:56.128Z,2.50
2023-04-25T05:19:41.955Z,2.70
2023-04-25T05:22:27.054Z,2.50
2023-04-25T05:25:12.298Z,2.60
2023-04-25T05:30:51.245Z,2.00
2023-04-25T05:33:36.471Z,2.20
2023-04-25T05:36:44.066Z,2.50
2023-04-25T05:39:30.577Z,2.90
2023-04-25T05:55:15.469Z,2.50
2023-04-25T06:01:31.148Z,2.40
2023-04-25T06:04:16.510Z,2.50
2023-04-25T06:07:02.561Z,2.00
2023-04-25T06:13:55.703Z,2.20
2023-04-25T06:19:45.563Z,2.70
2023-04-25T06:29:02.682Z,2.20
2023-04-25T06:31:49.997Z,2.00
2023-04-25T06:34:36.855Z,1.80
2023-04-25T06:37:23.585Z,2.10
2023-04-25T06:40:09.342Z,2.40
2023-04-25T06:45:41.759Z,2.50
2023-04-25T06:51:43.928Z,2.20
2023-04-25T06:54:30.196Z,2.00
2023-04-25T07:00:34.522Z,1.80
2023-04-25T07:03:23.690Z,1.70
2023-04-25T07:06:10.929Z,1.70
2023-04-25T07:18:00.730Z,1.70
2023-04-25T07:21:10.935Z,1.50
2023-04-25T07:23:57.464Z,1.60
2023-04-25T07:26:42.769Z,1.20
2023-04-25T07:29:28.685Z,1.70
2023-04-25T07:32:15.332Z,1.50
2023-04-25T07:47:53.635Z,1.50
2023-04-25T07:50:39.025Z,1.20
2023-04-25T07:53:24.839Z,1.80
2023-04-25T08:05:36.367Z,2.20
2023-04-25T08:08:22.827Z,2.40
2023-04-25T08:11:11.287Z,2.40
2023-04-25T08:13:56.483Z,2.20
2023-04-25T08:28:36.182Z,3.40
2023-04-25T08:34:39.047Z,3.20
2023-04-25T08:43:24.253Z,3.00
2023-04-25T08:46:10.626Z,3.70
2023-04-25T08:52:07.173Z,3.10
2023-04-25T09:17:29.277Z,2.30
2023-04-25T09:40:13.105Z,2.30
2023-04-25T09:42:59.537Z,2.40
2023-04-25T09:55:23.249Z,2.10
2023-04-25T09:58:34.993Z,2.10
2023-04-25T10:01:22.028Z,1.90
2023-04-25T10:24:10.339Z,2.50
2023-04-25T10:33:57.856Z,2.50
2023-04-25T10:43:31.903Z,2.60
2023-04-25T10:49:12.585Z,1.70
2023-04-25T10:52:16.700Z,1.90
2023-04-25T10:55:04.332Z,1.80
2023-04-25T10:57:50.351Z,2.00
2023-04-25T11:04:26.424Z,2.50
2023-04-25T11:07:28.757Z,1.70
2023-04-25T11:10:22.846Z,1.70
2023-04-25T11:13:12.862Z,1.60
2023-04-25T11:16:07.176Z,1.70
2023-04-25T11:18:58.971Z,1.10
2023-04-25T11:21:44.252Z,1.20
2023-04-25T11:24:31.188Z,1.10
2023-04-25T11:27:16.292Z,1.70
2023-04-25T11:30:13.111Z,1.30
2023-04-25T11:32:58.711Z,1.20
2023-04-25T11:35:44.708Z,0.90
2023-04-25T11:38:30.079Z,1.00
2023-04-25T11:41:15.511Z,1.20
2023-04-25T11:44:00.521Z,0.80
2023-04-25T11:46:46.837Z,1.30
2023-04-25T11:49:32.756Z,1.00
2023-04-25T11:52:17.612Z,1.00
2023-04-25T11:55:06.442Z,1.00
2023-04-25T11:57:52.323Z,1.00
2023-04-25T12:21:02.451Z,0.80
2023-04-25T12:23:47.606Z,0.70
2023-04-25T12:26:50.948Z,0.80
2023-04-25T12:29:48.421Z,0.50
2023-04-25T12:32:34.753Z,0.70
2023-04-25T12:35:20.131Z,1.10
2023-04-25T12:38:05.204Z,0.70
2023-04-25T12:40:50.376Z,0.80
2023-04-25T12:43:36.875Z,0.90
2023-04-25T12:46:24.470Z,0.90
2023-04-25T12:52:03.345Z,0.70
2023-04-25T12:54:48.437Z,0.50
2023-04-25T12:57:33.684Z,0.90
2023-04-25T13:00:22.166Z,0.80
2023-04-25T13:03:07.462Z,1.00
2023-04-25T13:05:53.142Z,0.90
2023-04-25T13:08:38.733Z,0.60
2023-04-25T13:11:24.275Z,0.90
2023-04-25T13:14:11.326Z,0.90
2023-04-25T13:16:56.745Z,0.50
2023-04-25T13:19:42.206Z,0.80
2023-04-25T13:28:51.847Z,0.90
2023-04-25T13:31:37.334Z,0.80
2023-04-25T13:34:23.025Z,0.80
2023-04-25T13:37:09.474Z,1.00
2023-04-25T13:39:55.891Z,1.00
2023-04-25T13:42:41.487Z,1.10
2023-04-25T13:45:26.750Z,0.90
2023-04-25T13:48:12.330Z,0.80
2023-04-25T13:50:58.113Z,1.00
2023-04-25T13:53:46.661Z,0.90
2023-04-25T13:56:39.463Z,0.90
2023-04-25T13:59:30.492Z,1.60
2023-04-25T14:02:17.511Z,0.90
2023-04-25T14:05:09.370Z,1.00
2023-04-25T14:07:56.921Z,0.90
2023-04-25T14:10:44.554Z,1.20
2023-04-25T14:13:32.468Z,1.70
2023-04-25T14:16:18.061Z,4.20
2023-04-25T14:19:04.105Z,2.60
2023-04-25T14:21:49.325Z,1.20
2023-04-25T14:24:35.296Z,0.80
2023-04-25T14:27:21.084Z,1.40
2023-04-25T14:30:10.162Z,0.90
2023-04-25T14:32:56.403Z,1.10
2023-04-25T14:35:42.237Z,0.90
2023-04-25T14:38:27.611Z,1.10
2023-04-25T14:41:13.530Z,0.90
2023-04-25T14:43:59.054Z,1.50
2023-04-25T14:46:44.410Z,0.90
2023-04-25T14:49:30.042Z,1.00
2023-04-25T14:52:15.621Z,0.70
2023-04-25T14:55:08.295Z,0.90
2023-04-25T14:57:57.521Z,0.90
2023-04-25T15:00:47.650Z,1.20
2023-04-25T15:06:41.991Z,1.50
2023-04-25T15:09:29.736Z,0.90
2023-04-25T15:12:15.788Z,1.10
2023-04-25T15:15:02.778Z,0.90
2023-04-25T15:17:48.080Z,1.20
2023-04-25T15:20:37.009Z,1.20
2023-04-25T15:23:25.286Z,1.30
2023-04-25T15:26:15.347Z,1.00
2023-04-25T15:29:00.935Z,1.00
2023-04-25T15:31:46.806Z,1.20
2023-04-25T15:34:32.965Z,1.50
2023-04-25T15:37:19.424Z,1.00
2023-04-25T15:40:12.909Z,1.50
2023-04-25T15:43:00.495Z,1.50
2023-04-25T15:45:46.294Z,2.30
2023-04-25T15:48:33.202Z,2.10
2023-04-25T15:51:23.139Z,3.70
2023-04-25T15:54:08.667Z,7.20
2023-04-25T15:56:54.044Z,8.50
2023-04-25T15:59:39.240Z,8.20
2023-04-25T16:02:24.695Z,5.80
2023-04-25T16:05:13.035Z,3.50
2023-04-25T16:08:00.458Z,2.30
2023-04-25T16:10:46.010Z,2.00
2023-04-25T16:13:33.164Z,2.00
2023-04-25T16:16:19.097Z,1.40
2023-04-25T16:19:08.560Z,1.40
2023-04-25T16:21:54.230Z,1.70
2023-04-25T16:24:39.991Z,1.90
2023-04-25T16:27:25.579Z,3.10
2023-04-25T16:30:11.636Z,2.20
2023-04-25T16:32:57.744Z,2.10
2023-04-25T16:35:46.631Z,2.10
2023-04-25T16:38:32.020Z,1.50
2023-04-25T16:41:28.132Z,1.70
2023-04-25T16:44:13.884Z,2.80
2023-04-25T16:46:59.510Z,1.20
2023-04-25T16:49:48.456Z,1.50
2023-04-25T16:52:34.239Z,2.70
2023-04-25T16:55:20.027Z,1.70
2023-04-25T16:58:08.800Z,3.30
2023-04-25T17:00:57.414Z,4.60
2023-04-25T17:03:44.167Z,3.30
2023-04-25T17:06:32.400Z,2.50
2023-04-25T17:09:18.065Z,2.60
2023-04-25T17:12:08.987Z,2.00
2023-04-25T17:14:54.250Z,1.70
2023-04-25T17:17:39.963Z,2.00
2023-04-25T17:20:29.105Z,2.80
2023-04-25T17:23:14.685Z,2.30
2023-04-25T17:26:01.088Z,3.00
2023-04-25T17:28:48.623Z,2.10
2023-04-25T17:31:37.768Z,1.80
2023-04-25T17:34:24.077Z,2.10
2023-04-25T17:37:14.880Z,3.80
2023-04-25T17:40:00.370Z,2.80
2023-04-25T17:42:46.249Z,3.50
2023-04-25T17:45:35.094Z,3.10
2023-04-25T17:48:26.868Z,2.00
2023-04-25T17:51:12.205Z,1.30
2023-04-25T17:53:57.863Z,2.80
2023-04-25T17:56:45.424Z,2.60
2023-04-25T17:59:30.896Z,2.10
2023-04-25T18:02:17.229Z,2.30
2023-04-25T18:05:10.711Z,2.50
2023-04-25T18:07:58.284Z,3.50
2023-04-25T18:10:43.771Z,3.40
2023-04-25T18:13:29.656Z,3.20
2023-04-25T18:16:15.507Z,2.30
2023-04-25T18:19:05.921Z,2.80
2023-04-25T18:21:55.475Z,2.80
2023-04-25T18:24:40.797Z,2.70
2023-04-25T18:27:26.049Z,4.00
2023-04-25T18:30:14.508Z,3.40
2023-04-25T18:33:04.411Z,3.30
2023-04-25T18:35:58.827Z,3.80
2023-04-25T18:38:53.208Z,2.90
2023-04-25T18:41:52.168Z,2.70
2023-04-25T18:45:06.119Z,2.80
2023-04-25T18:47:56.342Z,2.70
2023-04-25T18:50:44.351Z,1.90
2023-04-25T18:53:29.733Z,1.80
2023-04-25T18:56:29.020Z,2.60
2023-04-25T18:59:16.713Z,2.50
2023-04-25T19:02:02.871Z,2.80
2023-04-25T19:04:48.364Z,2.80
2023-04-25T19:07:39.948Z,2.70
2023-04-25T19:13:43.771Z,3.10
2023-04-25T19:16:40.844Z,2.90
2023-04-25T19:22:36.206Z,3.30
2023-04-25T19:25:26.892Z,3.90
2023-04-25T19:28:15.577Z,3.40
2023-04-25T19:31:02.033Z,3.90
2023-04-25T19:33:47.388Z,3.30
2023-04-25T19:36:36.457Z,6.20
2023-04-25T19:39:23.489Z,6.60
2023-04-25T19:42:15.603Z,3.10
2023-04-25T19:47:47.908Z,3.40
2023-04-25T19:50:36.132Z,3.80
2023-04-25T19:53:21.641Z,3.10
2023-04-25T19:56:10.847Z,2.90
2023-04-25T19:59:01.048Z,2.50
2023-04-25T20:01:46.787Z,2.30
2023-04-25T20:04:32.789Z,2.60
2023-04-25T20:07:22.316Z,2.60
2023-04-25T20:10:16.451Z,2.10
2023-04-25T20:13:02.169Z,2.60
2023-04-25T20:15:48.196Z,3.10
2023-04-25T20:18:37.141Z,2.50
2023-04-25T20:21:22.211Z,2.70
2023-04-25T20:24:08.302Z,2.50
2023-04-25T20:26:56.779Z,3.10
2023-04-25T20:29:42.125Z,3.00
2023-04-25T20:32:28.464Z,2.80
2023-04-25T20:35:14.803Z,3.30
2023-04-25T20:38:00.405Z,2.60
2023-04-25T20:40:45.804Z,2.70
2023-04-25T20:43:34.432Z,2.70
2023-04-25T20:46:22.738Z,2.30
2023-04-25T20:49:12.385Z,3.10
2023-04-25T20:52:02.628Z,2.90
2023-04-25T20:54:54.490Z,2.60
2023-04-25T20:57:40.486Z,3.10
2023-04-25T21:00:33.609Z,2.90
2023-04-25T21:03:20.810Z,3.40
2023-04-25T21:06:08.690Z,4.10
2023-04-25T21:08:54.057Z,4.20
2023-04-25T21:11:46.621Z,4.10
2023-04-25T21:14:32.082Z,3.50
2023-04-25T21:17:17.935Z,3.40
2023-04-25T21:20:09.719Z,4.10
2023-04-25T21:22:54.764Z,5.90
2023-04-25T21:25:42.098Z,4.30
2023-04-25T21:28:27.878Z,4.20
2023-04-25T21:31:14.465Z,3.80
2023-04-25T21:34:01.204Z,4.40
2023-04-25T21:36:46.678Z,4.30
2023-04-25T21:39:33.383Z,4.00
2023-04-25T21:42:18.760Z,3.40
2023-04-25T21:45:08.340Z,3.50
2023-04-25T21:47:54.732Z,4.00
2023-04-25T21:50:40.010Z,3.80
2023-04-25T21:53:28.464Z,3.50
2023-04-25T21:56:13.942Z,4.30
2023-04-25T21:58:59.853Z,3.40
2023-04-25T22:01:46.374Z,3.10
2023-04-25T22:04:32.044Z,3.20
2023-04-25T22:07:17.896Z,3.70
2023-04-25T22:10:07.977Z,3.60
2023-04-25T22:12:57.051Z,4.00
2023-04-25T22:15:42.663Z,3.90
2023-04-25T22:18:29.237Z,3.30
2023-04-25T22:21:16.770Z,3.60
2023-04-25T22:24:02.334Z,3.30
2023-04-25T22:26:49.971Z,3.20
2023-04-25T22:29:36.480Z,3.40
2023-04-25T22:32:22.640Z,3.40
2023-04-25T22:35:10.729Z,3.50
2023-04-25T22:37:56.295Z,3.40
2023-04-25T22:40:41.877Z,3.60
2023-04-25T22:43:29.225Z,3.50
2023-04-25T22:46:21.330Z,2.60
2023-04-25T22:49:06.610Z,2.30
2023-04-25T22:51:57.204Z,2.30
2023-04-25T22:54:42.577Z,2.50
2023-04-25T22:57:30.007Z,3.20
2023-04-25T23:00:20.360Z,3.00
2023-04-25T23:03:06.819Z,3.70
2023-04-25T23:05:54.335Z,3.80
2023-04-25T23:08:41.876Z,3.40
2023-04-25T23:11:27.849Z,3.00
2023-04-25T23:14:13.239Z,3.40
2023-04-25T23:19:52.278Z,6.80
2023-04-25T23:22:38.680Z,7.70
2023-04-25T23:25:26.918Z,8.70
2023-04-25T23:28:12.834Z,7.00
2023-04-25T23:31:07.348Z,6.10
2023-04-25T23:33:52.796Z,5.50
2023-04-25T23:36:39.571Z,5.00
2023-04-25T23:39:27.147Z,4.10
2023-04-25T23:42:12.512Z,3.60
2023-04-25T23:45:01.378Z,3.60
2023-04-25T23:47:47.364Z,3.60
2023-04-25T23:50:32.638Z,2.90
2023-04-25T23:53:17.945Z,2.70
2023-04-25T23:56:06.361Z,2.70
2023-04-25T23:58:52.386Z,3.30
